createdAt,value
2022-08-01T00:01:31.125Z,41.20
2022-08-01T00:04:00.700Z,42.00
2022-08-01T00:06:28.786Z,39.70
2022-08-01T00:08:56.991Z,39.10
2022-08-01T00:11:25.015Z,38.00
2022-08-01T00:13:53.019Z,37.90
2022-08-01T00:16:23.545Z,37.50
2022-08-01T00:18:51.655Z,36.30
2022-08-01T00:21:21.073Z,38.80
2022-08-01T00:23:49.487Z,42.50
2022-08-01T00:26:17.499Z,44.30
2022-08-01T00:28:45.555Z,42.00
2022-08-01T00:31:13.618Z,44.70
2022-08-01T00:33:41.696Z,46.20
2022-08-01T00:36:09.858Z,47.90
2022-08-01T00:38:39.262Z,48.30
2022-08-01T00:41:07.431Z,48.70
2022-08-01T00:43:35.429Z,47.30
2022-08-01T00:46:03.487Z,44.90
2022-08-01T00:48:31.628Z,48.10
2022-08-01T00:50:59.699Z,45.20
2022-08-01T00:53:27.820Z,45.10
2022-08-01T00:56:17.599Z,46.20
2022-08-01T00:58:45.799Z,46.50
2022-08-01T01:01:14.188Z,47.00
2022-08-01T01:03:58.580Z,49.20
2022-08-01T01:06:37.680Z,49.00
2022-08-01T01:09:19.256Z,48.80
2022-08-01T01:11:54.154Z,48.90
2022-08-01T01:14:29.781Z,49.20
2022-08-01T01:17:00.130Z,50.60
2022-08-01T01:19:32.844Z,49.90
2022-08-01T01:22:20.756Z,47.10
2022-08-01T01:25:06.698Z,45.60
2022-08-01T01:27:47.370Z,44.70
2022-08-01T01:30:17.193Z,44.00
2022-08-01T01:32:50.288Z,44.40
2022-08-01T01:35:23.213Z,45.90
2022-08-01T01:37:55.690Z,44.30
2022-08-01T01:40:24.950Z,43.30
2022-08-01T01:42:53.574Z,46.00
2022-08-01T01:45:25.643Z,45.70
2022-08-01T01:47:55.782Z,44.40
2022-08-01T01:50:25.082Z,44.00
2022-08-01T01:52:55.743Z,45.70
2022-08-01T01:55:25.870Z,45.40
2022-08-01T01:57:55.903Z,47.90
2022-08-01T02:00:26.933Z,46.90
2022-08-01T02:02:56.219Z,49.30
2022-08-01T02:05:25.676Z,58.00
2022-08-01T02:07:59.505Z,49.00
2022-08-01T02:10:29.063Z,49.50
2022-08-01T02:12:59.497Z,47.90
2022-08-01T02:15:31.506Z,46.80
2022-08-01T02:18:02.130Z,46.90
2022-08-01T02:20:32.398Z,49.30
2022-08-01T02:23:06.660Z,50.40
2022-08-01T02:25:40.704Z,49.90
2022-08-01T02:28:33.860Z,47.90
2022-08-01T02:31:06.582Z,49.40
2022-08-01T02:33:39.785Z,50.70
2022-08-01T02:36:31.774Z,49.20
2022-08-01T02:38:58.995Z,50.20
2022-08-01T02:41:29.139Z,50.60
2022-08-01T02:44:01.182Z,53.80
2022-08-01T02:46:37.264Z,53.20
2022-08-01T02:49:08.443Z,55.40
2022-08-01T02:51:38.295Z,55.80
2022-08-01T02:54:08.577Z,55.30
2022-08-01T02:56:37.319Z,54.00
2022-08-01T02:59:08.244Z,55.40
2022-08-01T03:01:38.707Z,69.50
2022-08-01T03:04:10.925Z,55.60
2022-08-01T03:06:40.412Z,55.40
2022-08-01T03:09:13.777Z,55.00
2022-08-01T03:11:45.118Z,56.20
2022-08-01T03:14:14.520Z,57.90
2022-08-01T03:16:46.781Z,57.70
2022-08-01T03:19:16.727Z,59.40
2022-08-01T03:21:45.866Z,57.70
2022-08-01T03:24:15.877Z,59.20
2022-08-01T03:26:44.719Z,58.80
2022-08-01T03:29:19.012Z,59.40
2022-08-01T03:31:50.841Z,61.60
2022-08-01T03:34:21.493Z,69.00
2022-08-01T03:36:52.461Z,58.00
2022-08-01T03:39:24.788Z,56.70
2022-08-01T03:41:59.930Z,56.10
2022-08-01T03:44:31.142Z,57.40
2022-08-01T03:47:04.304Z,57.90
2022-08-01T03:49:34.530Z,58.00
2022-08-01T03:52:05.907Z,56.80
2022-08-01T03:54:37.842Z,56.60
2022-08-01T03:57:07.558Z,57.20
2022-08-01T03:59:38.834Z,60.20
2022-08-01T04:02:09.027Z,64.60
2022-08-01T04:04:37.632Z,63.90
2022-08-01T04:07:07.721Z,62.00
2022-08-01T04:09:35.884Z,63.00
2022-08-01T04:12:12.001Z,62.50
2022-08-01T04:14:40.787Z,62.00
2022-08-01T04:17:10.232Z,61.10
2022-08-01T04:19:38.344Z,62.70
2022-08-01T04:22:08.018Z,61.90
2022-08-01T04:24:38.245Z,64.20
2022-08-01T04:27:11.739Z,64.00
2022-08-01T04:29:40.953Z,64.10
2022-08-01T04:32:13.621Z,64.50
2022-08-01T04:34:43.850Z,63.40
2022-08-01T04:37:13.258Z,62.60
2022-08-01T04:39:50.126Z,64.80
2022-08-01T04:42:26.767Z,63.30
2022-08-01T04:44:59.227Z,61.90
2022-08-01T04:47:29.279Z,61.80
2022-08-01T04:49:58.649Z,62.00
2022-08-01T04:52:36.822Z,61.80
2022-08-01T04:55:07.020Z,63.60
2022-08-01T04:57:38.344Z,62.60
2022-08-01T05:00:07.658Z,60.90
2022-08-01T05:02:37.183Z,60.10
2022-08-01T05:05:07.055Z,59.70
2022-08-01T05:07:45.336Z,61.80
2022-08-01T05:10:13.968Z,62.00
2022-08-01T05:12:42.221Z,60.70
2022-08-01T05:15:15.460Z,59.60
2022-08-01T05:17:45.234Z,55.60
2022-08-01T05:20:14.202Z,59.10
2022-08-01T05:22:43.666Z,60.00
2022-08-01T05:25:12.735Z,60.90
2022-08-01T05:27:46.637Z,70.00
2022-08-01T05:30:16.041Z,75.20
2022-08-01T05:32:45.516Z,63.90
2022-08-01T05:35:13.565Z,62.00
2022-08-01T05:37:41.775Z,68.90
2022-08-01T05:40:10.860Z,73.40
2022-08-01T05:42:38.938Z,70.90
2022-08-01T05:45:08.059Z,72.90
2022-08-01T05:47:36.093Z,73.00
2022-08-01T05:50:12.655Z,74.20
2022-08-01T05:52:40.680Z,72.70
2022-08-01T05:55:10.236Z,70.90
2022-08-01T05:57:40.565Z,69.10
2022-08-01T06:00:10.776Z,69.30
2022-08-01T06:02:43.141Z,68.00
2022-08-01T06:05:13.649Z,67.70
2022-08-01T06:07:42.180Z,66.80
2022-08-01T06:10:10.960Z,66.80
2022-08-01T06:12:39.453Z,68.40
2022-08-01T06:15:08.127Z,67.60
2022-08-01T06:17:36.178Z,65.80
2022-08-01T06:20:04.615Z,66.30
2022-08-01T06:22:34.080Z,63.80
2022-08-01T06:25:02.255Z,62.20
2022-08-01T06:27:30.339Z,57.90
2022-08-01T06:29:58.421Z,57.60
2022-08-01T06:32:27.898Z,58.20
2022-08-01T06:34:56.758Z,59.30
2022-08-01T06:37:25.024Z,58.90
2022-08-01T06:39:54.403Z,56.40
2022-08-01T06:42:22.444Z,59.30
2022-08-01T06:44:50.675Z,61.40
2022-08-01T06:47:18.659Z,60.50
2022-08-01T06:49:46.630Z,61.10
2022-08-01T06:52:14.646Z,58.70
2022-08-01T06:54:42.697Z,47.40
2022-08-01T06:57:12.049Z,47.00
2022-08-01T06:59:40.156Z,46.80
2022-08-01T07:02:19.974Z,45.60
2022-08-01T07:04:48.010Z,44.70
2022-08-01T07:07:16.087Z,44.80
2022-08-01T07:09:44.310Z,44.50
2022-08-01T07:12:13.748Z,44.60
2022-08-01T07:14:41.771Z,43.00
2022-08-01T07:17:09.834Z,44.10
2022-08-01T07:19:38.535Z,41.80
2022-08-01T07:22:06.965Z,42.50
2022-08-01T07:24:35.809Z,40.20
2022-08-01T07:27:21.259Z,37.10
2022-08-01T07:29:53.624Z,35.50
2022-08-01T07:32:21.945Z,36.60
2022-08-01T07:34:50.096Z,34.30
2022-08-01T07:37:18.261Z,35.40
2022-08-01T07:40:07.285Z,33.80
2022-08-01T07:42:35.343Z,32.40
2022-08-01T07:45:05.107Z,31.90
2022-08-01T07:47:33.124Z,31.40
2022-08-01T07:50:02.379Z,31.40
2022-08-01T07:52:31.177Z,30.20
2022-08-01T07:54:59.795Z,29.70
2022-08-01T07:57:27.964Z,29.30
2022-08-01T07:59:56.400Z,29.50
2022-08-01T08:02:25.955Z,28.70
2022-08-01T08:04:54.361Z,29.10
2022-08-01T08:07:22.449Z,28.20
2022-08-01T08:09:51.105Z,27.20
2022-08-01T08:12:28.367Z,28.00
2022-08-01T08:14:56.591Z,28.10
2022-08-01T08:17:27.281Z,26.80
2022-08-01T08:19:55.749Z,26.90
2022-08-01T08:22:23.750Z,26.90
2022-08-01T08:24:52.274Z,27.70
2022-08-01T08:27:20.365Z,28.00
2022-08-01T08:29:48.347Z,27.80
2022-08-01T08:32:16.368Z,26.90
2022-08-01T08:34:46.946Z,25.20
2022-08-01T08:37:15.419Z,26.20
2022-08-01T08:39:43.467Z,26.00
2022-08-01T08:42:12.487Z,26.00
2022-08-01T08:44:44.323Z,25.30
2022-08-01T08:47:19.689Z,25.00
2022-08-01T08:49:55.263Z,25.10
2022-08-01T08:52:24.426Z,24.30
2022-08-01T08:54:54.408Z,23.70
2022-08-01T08:57:23.415Z,22.90
2022-08-01T08:59:55.074Z,23.40
2022-08-01T09:02:23.409Z,22.30
2022-08-01T09:04:53.429Z,21.00
2022-08-01T09:07:21.569Z,23.00
2022-08-01T09:09:50.188Z,22.50
2022-08-01T09:12:20.380Z,21.70
2022-08-01T09:14:51.122Z,21.20
2022-08-01T09:17:19.336Z,21.40
2022-08-01T09:19:49.499Z,20.90
2022-08-01T09:22:22.267Z,21.20
2022-08-01T09:25:01.846Z,21.10
2022-08-01T09:27:39.076Z,21.00
2022-08-01T09:30:19.660Z,19.80
2022-08-01T09:32:57.051Z,20.20
2022-08-01T09:35:30.942Z,19.20
2022-08-01T09:38:18.906Z,18.90
2022-08-01T09:40:48.323Z,18.80
2022-08-01T09:43:17.511Z,19.20
2022-08-01T09:45:45.836Z,17.90
2022-08-01T09:48:18.427Z,18.00
2022-08-01T09:50:48.814Z,15.20
2022-08-01T09:53:24.524Z,17.00
2022-08-01T09:56:11.009Z,18.30
2022-08-01T09:59:00.407Z,18.30
2022-08-01T10:01:36.984Z,18.10
2022-08-01T10:04:12.279Z,19.40
2022-08-01T10:06:41.730Z,19.20
2022-08-01T10:09:12.104Z,18.90
2022-08-01T10:11:44.842Z,18.80
2022-08-01T10:14:17.846Z,18.00
2022-08-01T10:16:53.687Z,16.10
2022-08-01T10:19:28.927Z,17.00
2022-08-01T10:22:00.194Z,18.30
2022-08-01T10:24:33.605Z,18.10
2022-08-01T10:27:09.071Z,18.10
2022-08-01T10:29:58.979Z,16.40
2022-08-01T10:32:32.946Z,16.60
2022-08-01T10:35:06.828Z,17.40
2022-08-01T10:37:35.864Z,18.00
2022-08-01T10:40:31.022Z,18.20
2022-08-01T10:42:59.868Z,18.10
2022-08-01T10:45:30.414Z,18.00
2022-08-01T10:48:05.000Z,17.60
2022-08-01T10:50:35.777Z,17.30
2022-08-01T10:53:23.130Z,16.50
2022-08-01T10:56:01.297Z,16.50
2022-08-01T10:58:39.474Z,16.40
2022-08-01T11:01:33.194Z,17.00
2022-08-01T11:04:07.096Z,17.50
2022-08-01T11:06:44.086Z,18.00
2022-08-01T11:09:36.941Z,17.30
2022-08-01T11:12:13.549Z,17.50
2022-08-01T11:15:31.054Z,16.60
2022-08-01T11:18:04.707Z,16.90
2022-08-01T11:20:39.467Z,16.70
2022-08-01T11:23:20.229Z,17.20
2022-08-01T11:26:13.223Z,16.20
2022-08-01T11:29:10.859Z,15.90
2022-08-01T11:31:37.824Z,16.40
2022-08-01T11:34:06.560Z,16.00
2022-08-01T11:36:58.502Z,15.50
2022-08-01T11:39:22.852Z,15.40
2022-08-01T11:41:51.664Z,15.60
2022-08-01T11:44:26.674Z,14.30
2022-08-01T11:47:09.833Z,15.30
2022-08-01T11:49:56.005Z,13.90
2022-08-01T11:52:29.678Z,15.20
2022-08-01T11:55:10.391Z,15.20
2022-08-01T11:57:39.947Z,14.50
2022-08-01T12:00:17.390Z,14.80
2022-08-01T12:02:46.780Z,14.10
2022-08-01T12:05:17.735Z,13.90
2022-08-01T12:07:47.394Z,13.40
2022-08-01T12:10:17.431Z,13.50
2022-08-01T12:12:46.902Z,13.20
2022-08-01T12:15:17.070Z,14.00
2022-08-01T12:17:58.251Z,14.70
2022-08-01T12:20:31.383Z,15.10
2022-08-01T12:23:01.665Z,14.80
2022-08-01T12:25:30.130Z,14.80
2022-08-01T12:28:03.501Z,15.80
2022-08-01T12:30:36.211Z,14.70
2022-08-01T12:33:06.177Z,15.40
2022-08-01T12:35:35.068Z,13.60
2022-08-01T12:38:05.174Z,13.80
2022-08-01T12:40:34.723Z,12.90
2022-08-01T12:43:05.339Z,12.50
2022-08-01T12:45:37.427Z,12.80
2022-08-01T12:48:12.466Z,11.70
2022-08-01T12:50:43.695Z,11.70
2022-08-01T12:53:16.704Z,11.30
2022-08-01T12:55:58.635Z,11.60
2022-08-01T12:58:33.449Z,11.90
2022-08-01T13:01:07.745Z,11.00
2022-08-01T13:03:36.299Z,8.90
2022-08-01T13:06:13.386Z,9.70
2022-08-01T13:08:41.553Z,10.60
2022-08-01T13:11:15.215Z,9.60
2022-08-01T13:13:48.035Z,9.30
2022-08-01T13:16:31.192Z,8.70
2022-08-01T13:19:08.528Z,9.90
2022-08-01T13:21:54.245Z,9.60
2022-08-01T13:24:28.370Z,10.00
2022-08-01T13:26:59.722Z,8.80
2022-08-01T13:29:33.641Z,5.80
2022-08-01T13:32:28.022Z,8.50
2022-08-01T13:35:03.992Z,6.90
2022-08-01T13:37:32.304Z,8.00
2022-08-01T13:40:00.565Z,5.40
2022-08-01T13:42:30.141Z,6.40
2022-08-01T13:44:58.336Z,7.30
2022-08-01T13:47:33.430Z,4.00
2022-08-01T13:50:03.912Z,6.00
2022-08-01T13:52:32.676Z,6.10
2022-08-01T13:55:01.516Z,7.90
2022-08-01T13:57:36.909Z,8.00
2022-08-01T14:00:07.453Z,7.60
2022-08-01T14:02:37.123Z,8.20
2022-08-01T14:05:05.692Z,7.70
2022-08-01T14:07:33.812Z,7.90
2022-08-01T14:10:18.514Z,9.90
2022-08-01T14:12:48.621Z,8.80
2022-08-01T14:15:18.121Z,8.50
2022-08-01T14:18:06.673Z,8.00
2022-08-01T14:20:35.610Z,7.10
2022-08-01T14:23:03.665Z,7.70
2022-08-01T14:26:03.531Z,6.40
2022-08-01T14:28:23.056Z,9.10
2022-08-01T14:30:51.132Z,7.70
2022-08-01T14:33:20.528Z,7.40
2022-08-01T14:36:05.267Z,7.30
2022-08-01T14:38:35.972Z,7.50
2022-08-01T14:41:04.829Z,7.90
2022-08-01T14:43:34.182Z,7.60
2022-08-01T14:46:04.331Z,7.60
2022-08-01T14:48:33.882Z,6.60
2022-08-01T14:51:03.618Z,8.00
2022-08-01T14:53:34.224Z,7.30
2022-08-01T14:56:04.384Z,7.30
2022-08-01T14:58:32.641Z,8.80
2022-08-01T15:01:01.589Z,7.90
2022-08-01T15:03:29.806Z,6.20
2022-08-01T15:05:59.188Z,4.20
2022-08-01T15:08:27.441Z,5.30
2022-08-01T15:10:55.512Z,3.10
2022-08-01T15:13:23.523Z,3.50
2022-08-01T15:15:51.626Z,1.00
2022-08-01T15:18:19.681Z,1.00
2022-08-01T15:20:47.844Z,1.00
2022-08-01T15:23:17.238Z,1.00
2022-08-01T15:25:45.256Z,1.10
2022-08-01T15:28:14.086Z,1.60
2022-08-01T15:30:42.547Z,2.30
2022-08-01T15:33:10.664Z,2.70
2022-08-01T15:35:38.767Z,3.20
2022-08-01T15:38:07.163Z,4.20
2022-08-01T15:40:36.619Z,5.60
2022-08-01T15:43:04.863Z,6.50
2022-08-01T15:45:49.006Z,5.60
2022-08-01T15:48:17.819Z,5.30
2022-08-01T15:50:46.128Z,3.40
2022-08-01T15:53:14.208Z,2.90
2022-08-01T15:55:48.864Z,3.90
2022-08-01T15:58:20.667Z,3.30
2022-08-01T16:00:48.760Z,3.00
2022-08-01T16:03:16.880Z,5.20
2022-08-01T16:05:45.129Z,6.30
2022-08-01T16:08:14.206Z,5.50
2022-08-01T16:10:44.276Z,5.30
2022-08-01T16:13:12.567Z,6.20
2022-08-01T16:15:40.977Z,4.60
2022-08-01T16:18:10.221Z,6.20
2022-08-01T16:20:44.795Z,6.40
2022-08-01T16:23:14.144Z,7.00
2022-08-01T16:25:44.519Z,8.10
2022-08-01T16:28:13.980Z,8.50
2022-08-01T16:30:51.812Z,9.20
2022-08-01T16:33:49.642Z,9.50
2022-08-01T16:36:18.802Z,9.60
2022-08-01T16:38:47.617Z,9.60
2022-08-01T16:41:20.258Z,9.90
2022-08-01T16:43:53.318Z,10.30
2022-08-01T16:46:23.170Z,9.20
2022-08-01T16:48:51.280Z,9.50
2022-08-01T16:51:19.866Z,8.90
2022-08-01T16:53:47.943Z,10.30
2022-08-01T16:56:17.364Z,10.00
2022-08-01T16:58:45.470Z,10.50
2022-08-01T17:02:00.798Z,10.90
2022-08-01T17:04:02.221Z,11.80
2022-08-01T17:06:30.737Z,11.50
2022-08-01T17:08:59.258Z,10.90
2022-08-01T17:11:29.351Z,11.10
2022-08-01T17:13:57.492Z,11.40
2022-08-01T17:16:25.574Z,13.20
2022-08-01T17:18:53.608Z,12.60
2022-08-01T17:21:21.706Z,13.70
2022-08-01T17:23:49.798Z,12.90
2022-08-01T17:26:17.923Z,13.20
2022-08-01T17:28:47.393Z,13.40
2022-08-01T17:31:15.453Z,13.00
2022-08-01T17:33:45.761Z,14.50
2022-08-01T17:36:17.606Z,13.00
2022-08-01T17:38:45.680Z,13.00
2022-08-01T17:41:13.993Z,13.80
2022-08-01T17:43:42.136Z,12.70
2022-08-01T17:46:11.693Z,13.30
2022-08-01T17:48:39.755Z,12.70
2022-08-01T17:51:07.794Z,13.40
2022-08-01T17:53:35.986Z,13.00
2022-08-01T17:56:05.982Z,13.50
2022-08-01T17:58:50.526Z,12.70
2022-08-01T18:01:22.216Z,13.70
2022-08-01T18:03:55.439Z,12.60
2022-08-01T18:06:26.009Z,14.00
2022-08-01T18:08:56.188Z,12.80
2022-08-01T18:11:27.509Z,11.50
2022-08-01T18:13:56.600Z,12.40
2022-08-01T18:16:27.462Z,11.90
2022-08-01T18:18:56.057Z,14.20
2022-08-01T18:21:24.389Z,13.40
2022-08-01T18:23:52.556Z,13.30
2022-08-01T18:26:21.430Z,12.30
2022-08-01T18:28:49.587Z,13.70
2022-08-01T18:31:20.174Z,11.80
2022-08-01T18:33:49.777Z,13.40
2022-08-01T18:36:32.905Z,15.30
2022-08-01T18:39:04.523Z,16.50
2022-08-01T18:41:33.771Z,17.20
2022-08-01T18:44:07.422Z,19.60
2022-08-01T18:46:37.069Z,20.00
2022-08-01T18:49:07.869Z,23.20
2022-08-01T18:51:42.986Z,24.80
2022-08-01T18:54:12.281Z,29.30
2022-08-01T18:56:40.396Z,39.20
2022-08-01T18:59:08.454Z,39.10
2022-08-01T19:01:36.668Z,41.20
2022-08-01T19:04:06.479Z,53.50
2022-08-01T19:06:34.619Z,53.60
2022-08-01T19:09:03.566Z,57.50
2022-08-01T19:11:31.902Z,59.00
2022-08-01T19:14:01.292Z,59.00
2022-08-01T19:16:29.375Z,61.40
2022-08-01T19:18:57.491Z,60.90
2022-08-01T19:21:27.902Z,66.40
2022-08-01T19:24:13.557Z,65.20
2022-08-01T19:26:46.685Z,74.10
2022-08-01T19:29:18.985Z,70.60
2022-08-01T19:31:49.418Z,77.60
2022-08-01T19:34:19.240Z,85.40
2022-08-01T19:36:50.241Z,89.80
2022-08-01T19:39:21.647Z,91.50
2022-08-01T19:41:51.036Z,93.00
2022-08-01T19:44:21.089Z,92.10
2022-08-01T19:46:49.588Z,92.60
2022-08-01T19:49:20.019Z,91.80
2022-08-01T19:51:51.547Z,94.10
2022-08-01T19:54:21.621Z,96.10
2022-08-01T19:56:51.869Z,96.10
2022-08-01T19:59:21.418Z,97.30
2022-08-01T20:01:51.451Z,95.60
2022-08-01T20:04:20.224Z,93.30
2022-08-01T20:06:49.764Z,93.90
2022-08-01T20:09:17.914Z,93.20
2022-08-01T20:11:47.154Z,93.20
2022-08-01T20:14:18.641Z,93.70
2022-08-01T20:16:47.254Z,97.00
2022-08-01T20:19:15.344Z,98.30
2022-08-01T20:22:03.408Z,98.20
2022-08-01T20:24:39.429Z,98.10
2022-08-01T20:27:09.140Z,96.30
2022-08-01T20:29:38.053Z,97.20
2022-08-01T20:32:07.112Z,99.00
2022-08-01T20:34:38.243Z,99.50
2022-08-01T20:37:09.262Z,99.90
2022-08-01T20:39:45.092Z,99.90
2022-08-01T20:42:14.404Z,99.90
2022-08-01T20:44:43.317Z,99.90
2022-08-01T20:47:11.659Z,99.90
2022-08-01T20:49:43.316Z,99.70
2022-08-01T20:52:12.876Z,99.10
2022-08-01T20:54:42.956Z,97.70
2022-08-01T20:57:18.623Z,97.60
2022-08-01T20:59:55.331Z,97.80
2022-08-01T21:02:42.551Z,98.10
2022-08-01T21:05:12.802Z,97.00
2022-08-01T21:07:48.679Z,97.00
2022-08-01T21:10:19.172Z,95.90
2022-08-01T21:12:51.172Z,95.50
2022-08-01T21:15:28.149Z,95.70
2022-08-01T21:18:02.975Z,96.70
2022-08-01T21:20:36.322Z,98.30
2022-08-01T21:23:15.594Z,98.00
2022-08-01T21:25:45.232Z,97.90
2022-08-01T21:28:15.629Z,97.00
2022-08-01T21:30:53.711Z,96.80
2022-08-01T21:33:24.998Z,97.30
2022-08-01T21:35:56.580Z,97.60
2022-08-01T21:38:28.247Z,98.70
2022-08-01T21:40:57.695Z,99.40
2022-08-01T21:43:25.788Z,99.20
2022-08-01T21:45:57.340Z,99.60
2022-08-01T21:48:26.993Z,98.70
2022-08-01T21:51:00.451Z,99.10
2022-08-01T21:53:38.464Z,98.30
2022-08-01T21:56:22.691Z,99.10
2022-08-01T21:58:56.873Z,98.80
2022-08-01T22:01:33.378Z,99.10
2022-08-01T22:04:22.489Z,99.50
2022-08-01T22:06:51.834Z,99.00
2022-08-01T22:09:20.969Z,98.70
2022-08-01T22:12:00.844Z,98.30
2022-08-01T22:14:33.452Z,98.20
2022-08-01T22:17:02.909Z,98.60
2022-08-01T22:19:43.929Z,98.50
2022-08-01T22:22:44.105Z,98.80
2022-08-01T22:25:03.068Z,98.10
2022-08-01T22:28:06.550Z,97.80
2022-08-01T22:30:21.783Z,97.70
2022-08-01T22:33:15.493Z,98.80
2022-08-01T22:35:39.891Z,98.70
2022-08-01T22:38:09.738Z,99.60
2022-08-01T22:40:46.088Z,99.80
2022-08-01T22:43:24.223Z,98.50
2022-08-01T22:46:05.722Z,99.00
2022-08-01T22:48:40.025Z,99.40
2022-08-01T22:51:15.282Z,99.40
2022-08-01T22:53:50.753Z,99.90
2022-08-01T22:56:18.869Z,98.40
2022-08-01T22:58:50.511Z,98.20
2022-08-01T23:01:22.958Z,98.70
2022-08-01T23:03:54.737Z,99.20
2022-08-01T23:06:26.724Z,99.50
2022-08-01T23:08:57.364Z,99.70
2022-08-01T23:11:25.463Z,99.30
2022-08-01T23:13:56.612Z,99.60
2022-08-01T23:16:26.491Z,99.10
2022-08-01T23:18:55.694Z,99.40
2022-08-01T23:21:24.268Z,99.70
2022-08-01T23:23:53.373Z,99.70
2022-08-01T23:26:23.371Z,99.90
2022-08-01T23:28:51.911Z,99.90
2022-08-01T23:31:23.788Z,99.90
2022-08-01T23:34:09.973Z,99.10
2022-08-01T23:36:39.162Z,97.60
2022-08-01T23:39:07.268Z,97.50
2022-08-01T23:41:57.366Z,97.30
2022-08-01T23:44:23.338Z,97.90
2022-08-01T23:46:52.744Z,98.40
2022-08-01T23:49:21.049Z,98.40
2022-08-01T23:51:49.316Z,98.70
2022-08-01T23:54:17.464Z,99.20
2022-08-01T23:56:45.673Z,98.50
2022-08-01T23:59:14.312Z,98.60
